Overview Statistics Trail Chart Weather Telemetry Raw packets
 

This is the latest recevied weather packets stored in our database for station/object KJ6HT. If no packets are shown the sender has not sent any weather packets the latest 10 day(s).

<< 19 20 21 22 23 24 25 >>
Time Temp. Humidity Pressure Rain* Wind** Luminosity Snow
1788178587 20° C 90% 1010.4 hPa 0 mm - - -
1788177628 20° C 88% 1010.4 hPa 0 mm - - -
1788176776 20.56° C 88% 1010.5 hPa 0 mm - - -
1788175841 20.56° C 89% 1010.5 hPa 0 mm - - -
1788174929 20.56° C 87% 1010.6 hPa 0 mm - - -
1788174062 21.11° C 85% 1010.5 hPa 0 mm - - -
1788173130 21.67° C 82% 1010.6 hPa 0 mm - - -
1788172289 21.11° C 88% 1010.5 hPa 0 mm - - -
1788171347 20.56° C 87% 1010.5 hPa 0 mm - - -
1788170419 21.11° C 86% 1010.5 hPa 0 mm - - -
1788169572 21.11° C 85% 1010.3 hPa 0 mm - - -
1788168664 21.67° C 84% 1010.4 hPa 0 mm - - -
1788167719 22.22° C 81% 1010.4 hPa 0 mm - - -
1788166858 21.67° C 83% 1010.3 hPa 0 mm - - -
1788165949 21.67° C 82% 1010.3 hPa 0 mm - - -
1788165075 21.67° C 82% 1010.5 hPa 0 mm - - -
1788164140 22.22° C 80% 1010.5 hPa 0 mm - - -
1788163240 22.22° C 80% 1010.7 hPa 0 mm - - -
1788162388 22.78° C 77% 1010.7 hPa 0 mm - - -
1788161437 23.33° C 77% 1010.6 hPa 0 mm - - -
1788160581 22.78° C 77% 1010.6 hPa 0 mm - - -
1788159652 23.33° C 75% 1010.4 hPa 0 mm - - -
1788158714 23.89° C 74% 1010.5 hPa 0 mm - - -
1788157870 22.78° C 78% 1010.3 hPa 0 mm - - -
1788156914 23.33° C 75% 1010.3 hPa 0 mm - - -

* Rain latest hour (hover to see other rain measurements)
** Current wind speed in m/s (hover to see current wind gust speed)